Time;durP1;ratioP1;P1;durP2;ratioP2;P2;SDS_P1;SDS_P2;PMS_P1;PMS_P2;Temp;Humidity;BMP_temperature;BMP_pressure;BME280_temperature;BME280_humidity;BME280_pressure;Samples;Min_cycle;Max_cycle;Signal;HPM_P1;HPM_P2
2021/06/09 00:02:07;;;;;;;24.30;21.10;;;17.70;1.00;;;;;;4955213;28;20217;-73
2021/06/09 00:04:33;;;;;;;24.10;21.03;;;17.70;1.00;;;;;;4956984;28;20212;-73
2021/06/09 00:06:59;;;;;;;24.80;22.20;;;17.70;1.00;;;;;;4955626;28;20439;-73
2021/06/09 00:09:25;;;;;;;25.17;22.47;;;17.60;1.00;;;;;;4951370;28;20248;-73
2021/06/09 00:11:50;;;;;;;27.67;23.40;;;17.50;1.00;;;;;;4956037;28;20197;-73
2021/06/09 00:14:16;;;;;;;25.43;22.73;;;17.40;1.00;;;;;;4956096;28;20185;-73
2021/06/09 00:16:44;;;;;;;25.67;22.93;;;17.30;1.00;;;;;;4955599;28;20189;-73
2021/06/09 00:19:11;;;;;;;27.57;22.67;;;17.30;1.00;;;;;;4947171;28;20585;-73
2021/06/09 00:21:37;;;;;;;26.60;23.70;;;17.40;1.00;;;;;;4950439;28;20569;-73
2021/06/09 00:24:03;;;;;;;30.63;23.80;;;17.40;1.00;;;;;;4949696;28;20460;-73
2021/06/09 00:26:29;;;;;;;26.03;22.57;;;17.30;1.00;;;;;;4947420;28;20457;-73
2021/06/09 00:28:55;;;;;;;24.50;22.00;;;17.20;1.00;;;;;;4950978;28;20541;-74
2021/06/09 00:31:21;;;;;;;26.70;23.70;;;17.10;1.00;;;;;;4947984;28;20480;-73
2021/06/09 00:33:49;;;;;;;30.20;24.60;;;17.00;1.00;;;;;;4950351;28;21650;-73
2021/06/09 00:36:15;;;;;;;28.40;23.87;;;17.00;1.00;;;;;;4943183;28;20963;-73
2021/06/09 00:38:41;;;;;;;28.90;25.90;;;17.10;1.00;;;;;;4943692;28;20476;-73
2021/06/09 00:41:08;;;;;;;30.33;24.50;;;17.00;1.00;;;;;;4946414;28;20495;-73
2021/06/09 00:43:34;;;;;;;31.67;27.93;;;16.90;1.00;;;;;;4937539;28;20708;-73
2021/06/09 00:46:10;;;;;;;33.30;29.47;;;16.90;1.00;;;;;;4954322;28;20508;-73
2021/06/09 00:48:42;;;;;;;35.73;29.63;;;16.90;1.00;;;;;;4943580;28;20500;-73
2021/06/09 00:51:17;;;;;;;29.00;25.90;;;17.10;1.00;;;;;;4956626;28;20452;-73
2021/06/09 00:53:56;;;;;;;32.23;25.67;;;17.20;1.00;;;;;;4952414;28;21037;-73
2021/06/09 00:56:23;;;;;;;32.17;24.57;;;17.30;1.00;;;;;;4948969;28;21005;-73
2021/06/09 00:58:50;;;;;;;29.57;26.37;;;17.20;1.00;;;;;;4948343;28;20595;-74
2021/06/09 01:01:18;;;;;;;29.57;26.07;;;17.20;1.00;;;;;;4955987;28;20477;-74
2021/06/09 01:03:45;;;;;;;33.70;28.77;;;17.20;1.00;;;;;;4948164;28;20535;-73
2021/06/09 01:06:11;;;;;;;36.40;28.83;;;17.20;1.00;;;;;;4947800;28;20449;-73
2021/06/09 01:08:39;;;;;;;34.43;30.63;;;17.20;1.00;;;;;;4949318;28;20673;-73
2021/06/09 01:11:08;;;;;;;31.33;27.97;;;17.20;1.00;;;;;;4947007;28;20445;-73
2021/06/09 01:13:34;;;;;;;28.60;25.50;;;17.20;1.00;;;;;;4951139;28;20495;-73
2021/06/09 01:16:00;;;;;;;30.13;25.80;;;17.10;1.00;;;;;;4953499;28;20456;-73
2021/06/09 01:18:26;;;;;;;31.23;27.83;;;17.10;1.00;;;;;;4951875;28;22646;-73
2021/06/09 01:20:52;;;;;;;30.43;26.97;;;17.10;1.00;;;;;;4952044;28;20452;-73
2021/06/09 01:23:19;;;;;;;28.23;25.20;;;17.10;1.00;;;;;;4954555;28;20456;-73
2021/06/09 01:25:47;;;;;;;31.87;27.93;;;17.00;1.00;;;;;;4953235;28;20451;-73
2021/06/09 01:28:13;;;;;;;29.60;25.03;;;17.00;1.00;;;;;;4951381;28;20453;-73
2021/06/09 01:30:40;;;;;;;29.57;26.03;;;16.90;1.00;;;;;;4955268;28;20447;-73
2021/06/09 01:33:07;;;;;;;29.53;25.33;;;16.90;1.00;;;;;;4951803;28;20206;-73
2021/06/09 01:35:33;;;;;;;32.03;25.50;;;16.80;1.00;;;;;;4951116;28;20498;-73
2021/06/09 01:37:59;;;;;;;32.90;28.63;;;16.90;1.00;;;;;;4951273;28;20798;-73
2021/06/09 01:40:26;;;;;;;30.43;27.30;;;16.90;1.00;;;;;;4951994;28;20481;-73
2021/06/09 01:42:53;;;;;;;31.10;27.27;;;17.00;1.00;;;;;;4953945;28;20440;-73
2021/06/09 01:45:21;;;;;;;28.83;24.60;;;17.00;1.00;;;;;;4947631;28;20574;-73
2021/06/09 01:47:47;;;;;;;28.73;25.73;;;17.10;1.00;;;;;;4954512;28;20523;-73
2021/06/09 01:50:15;;;;;;;34.37;29.90;;;16.90;1.00;;;;;;4942514;28;20962;-73
2021/06/09 01:52:42;;;;;;;31.30;27.13;;;16.80;1.00;;;;;;4949220;28;20192;-73
2021/06/09 01:55:10;;;;;;;35.80;29.43;;;16.80;1.00;;;;;;4948187;28;20460;-73
2021/06/09 01:57:36;;;;;;;32.43;28.50;;;16.90;1.00;;;;;;4951568;28;20459;-74
2021/06/09 02:00:15;;;;;;;37.53;31.60;;;16.90;1.00;;;;;;4956841;28;20566;-73
2021/06/09 02:02:41;;;;;;;38.70;30.77;;;16.70;1.00;;;;;;4953975;28;20494;-73
2021/06/09 02:05:09;;;;;;;42.33;33.03;;;16.70;1.00;;;;;;4952462;28;20447;-73
2021/06/09 02:07:40;;;;;;;36.43;30.57;;;16.70;1.00;;;;;;4953243;28;20570;-73
2021/06/09 02:10:11;;;;;;;39.70;31.27;;;16.70;1.00;;;;;;4953975;28;20456;-73
2021/06/09 02:12:40;;;;;;;37.17;31.83;;;16.80;1.00;;;;;;4956351;28;20510;-73
2021/06/09 02:15:06;;;;;;;34.50;30.60;;;16.70;1.00;;;;;;4949761;28;20452;-73
2021/06/09 02:17:32;;;;;;;37.57;33.27;;;16.70;1.00;;;;;;4958267;28;20912;-73
2021/06/09 02:19:58;;;;;;;45.97;35.73;;;16.80;1.00;;;;;;4955211;28;20502;-73
2021/06/09 02:22:23;;;;;;;39.90;34.90;;;16.70;1.00;;;;;;4953626;28;20190;-73
2021/06/09 02:24:49;;;;;;;38.43;31.90;;;16.70;1.00;;;;;;4949797;28;20230;-73
2021/06/09 02:27:15;;;;;;;38.57;31.87;;;16.70;1.00;;;;;;4961880;28;20239;-73
2021/06/09 02:29:41;;;;;;;36.07;31.23;;;16.70;1.00;;;;;;4953326;28;22447;-73
2021/06/09 02:32:07;;;;;;;35.73;31.10;;;16.60;1.00;;;;;;4956552;28;20713;-73
2021/06/09 02:34:35;;;;;;;36.30;30.27;;;16.60;1.00;;;;;;4963416;28;20257;-73
2021/06/09 02:37:01;;;;;;;37.43;31.57;;;16.70;1.00;;;;;;4952033;28;20527;-73
2021/06/09 02:39:26;;;;;;;41.90;31.87;;;16.60;1.00;;;;;;4954710;28;20472;-74
2021/06/09 02:41:52;;;;;;;40.80;33.43;;;16.50;1.00;;;;;;4956097;28;20211;-74
2021/06/09 02:44:18;;;;;;;43.30;33.50;;;16.50;1.00;;;;;;4947398;28;20200;-73
2021/06/09 02:46:49;;;;;;;42.10;31.47;;;16.30;1.00;;;;;;4960097;28;20215;-74
2021/06/09 02:49:18;;;;;;;40.93;31.93;;;16.30;1.00;;;;;;4951796;28;20610;-74
2021/06/09 02:52:02;;;;;;;37.20;30.03;;;16.40;1.00;;;;;;4954793;28;20456;-74
2021/06/09 02:54:50;;;;;;;40.50;31.13;;;16.40;1.00;;;;;;4949043;28;20588;-73
2021/06/09 02:57:48;;;;;;;36.47;30.63;;;16.40;1.00;;;;;;4949285;28;20471;-73
2021/06/09 03:00:23;;;;;;;38.00;30.13;;;16.30;1.00;;;;;;4947057;28;20469;-73
2021/06/09 03:03:18;;;;;;;34.07;27.43;;;16.30;1.00;;;;;;4949112;28;20462;-73
2021/06/09 03:06:09;;;;;;;36.07;29.47;;;16.40;1.00;;;;;;4951795;28;20463;-73
2021/06/09 03:08:48;;;;;;;36.30;29.43;;;16.40;1.00;;;;;;4949984;28;21055;-73
2021/06/09 03:11:26;;;;;;;36.90;29.37;;;16.30;1.00;;;;;;4950509;28;20539;-73
2021/06/09 03:16:56;;;;;;;41.90;32.40;;;16.20;1.00;;;;;;4955524;28;21244;-73
2021/06/09 03:19:54;;;;;;;35.23;30.13;;;16.30;1.00;;;;;;4951944;28;20479;-73
2021/06/09 03:22:43;;;;;;;35.13;29.40;;;16.40;1.00;;;;;;4956028;28;20444;-73
2021/06/09 03:25:14;;;;;;;41.23;32.30;;;16.40;1.00;;;;;;4951988;28;20463;-74
2021/06/09 03:27:47;;;;;;;42.47;30.40;;;16.40;1.00;;;;;;4950006;28;20955;-73
2021/06/09 03:30:14;;;;;;;38.80;31.63;;;16.30;1.00;;;;;;4953600;28;20452;-73
2021/06/09 03:33:05;;;;;;;37.60;31.60;;;16.30;1.00;;;;;;4953843;28;20545;-74
2021/06/09 03:35:40;;;;;;;38.90;31.70;;;16.20;1.00;;;;;;4947285;28;20544;-74
2021/06/09 03:38:12;;;;;;;39.67;32.50;;;16.30;1.00;;;;;;4950915;28;20514;-74
2021/06/09 03:40:41;;;;;;;42.43;32.57;;;16.10;1.00;;;;;;4945481;28;22606;-74
2021/06/09 03:43:10;;;;;;;42.50;34.10;;;16.10;1.00;;;;;;4951876;28;20530;-73
2021/06/09 03:45:45;;;;;;;43.10;32.97;;;16.10;1.00;;;;;;4954897;28;20534;-73
2021/06/09 03:48:13;;;;;;;31.90;28.50;;;16.20;1.00;;;;;;4954459;28;20460;-74
2021/06/09 03:50:42;;;;;;;36.33;30.20;;;16.30;1.00;;;;;;4943256;28;20513;-74
2021/06/09 03:53:08;;;;;;;41.67;32.27;;;16.30;1.00;;;;;;4954899;28;20516;-74
2021/06/09 03:55:38;;;;;;;37.97;32.23;;;16.20;1.00;;;;;;4958114;28;21309;-73
2021/06/09 03:58:07;;;;;;;39.27;32.80;;;16.10;1.00;;;;;;4954561;28;20864;-74
2021/06/09 04:00:34;;;;;;;33.93;27.87;;;16.10;1.00;;;;;;4955204;28;20493;-73
2021/06/09 04:03:01;;;;;;;27.50;23.20;;;16.40;1.00;;;;;;4952785;28;20454;-74
2021/06/09 04:05:27;;;;;;;43.53;30.27;;;16.70;1.00;;;;;;4954913;28;20540;-74
2021/06/09 04:07:57;;;;;;;32.07;26.60;;;16.90;1.00;;;;;;4954510;28;20546;-73
2021/06/09 04:10:23;;;;;;;34.33;29.00;;;16.90;1.00;;;;;;4955351;28;20460;-73
2021/06/09 04:12:49;;;;;;;28.30;23.50;;;16.80;1.00;;;;;;4951634;28;20539;-73
2021/06/09 04:15:18;;;;;;;32.10;27.00;;;16.80;1.00;;;;;;4945267;28;20527;-73
2021/06/09 04:17:47;;;;;;;37.77;29.97;;;17.10;1.00;;;;;;4948121;28;20464;-73
2021/06/09 04:20:13;;;;;;;33.37;28.43;;;17.20;1.00;;;;;;4945121;28;20471;-74
2021/06/09 04:22:39;;;;;;;34.23;26.73;;;17.20;1.00;;;;;;4949784;28;20892;-73
2021/06/09 04:25:09;;;;;;;31.00;26.20;;;17.40;1.00;;;;;;4952449;28;20452;-73
2021/06/09 04:27:43;;;;;;;34.53;26.13;;;17.50;1.00;;;;;;4955365;28;20481;-73
2021/06/09 04:30:10;;;;;;;35.00;25.07;;;17.30;1.00;;;;;;4955901;28;20516;-73
2021/06/09 04:32:57;;;;;;;28.83;25.00;;;17.30;1.00;;;;;;4950573;28;21030;-73
2021/06/09 04:35:27;;;;;;;27.93;24.37;;;17.30;1.00;;;;;;4953076;28;20481;-73
2021/06/09 04:37:53;;;;;;;29.00;24.83;;;17.20;1.00;;;;;;4952357;28;20811;-73
2021/06/09 04:40:24;;;;;;;33.60;25.43;;;17.30;1.00;;;;;;4956727;28;20861;-73
2021/06/09 04:42:52;;;;;;;36.83;28.93;;;17.60;1.00;;;;;;4953088;28;20443;-73
2021/06/09 04:45:19;;;;;;;38.03;30.47;;;17.80;1.00;;;;;;4960060;28;20474;-73
2021/06/09 04:47:46;;;;;;;33.80;27.80;;;17.40;1.00;;;;;;4954247;28;20456;-73
2021/06/09 04:50:17;;;;;;;35.73;27.97;;;17.80;1.00;;;;;;4955361;28;21040;-73
2021/06/09 04:52:43;;;;;;;40.00;29.67;;;17.80;1.00;;;;;;4947889;28;20455;-73
2021/06/09 04:55:09;;;;;;;36.60;29.40;;;17.70;1.00;;;;;;4949840;28;20448;-73
2021/06/09 04:57:35;;;;;;;39.50;31.03;;;18.00;1.00;;;;;;4960531;28;20874;-73
2021/06/09 05:00:09;;;;;;;36.83;28.87;;;18.30;1.00;;;;;;4957304;28;20907;-73
2021/06/09 05:02:35;;;;;;;40.93;31.80;;;18.00;1.00;;;;;;4954938;28;20440;-73
2021/06/09 05:05:01;;;;;;;37.40;31.40;;;17.90;1.00;;;;;;4954509;28;20468;-73
2021/06/09 05:07:27;;;;;;;36.80;29.70;;;17.90;1.00;;;;;;4952464;28;20440;-73
2021/06/09 05:09:53;;;;;;;40.90;32.37;;;18.10;1.00;;;;;;4950947;28;21429;-73
2021/06/09 05:12:42;;;;;;;36.63;29.60;;;17.90;1.00;;;;;;4952065;28;20197;-73
2021/06/09 05:15:10;;;;;;;39.40;28.97;;;17.70;1.00;;;;;;4955283;28;20944;-73
2021/06/09 05:17:47;;;;;;;31.70;28.07;;;17.80;1.00;;;;;;4962679;28;20458;-73
2021/06/09 05:20:34;;;;;;;39.23;29.40;;;17.80;1.00;;;;;;4958509;28;20471;-73
2021/06/09 05:23:07;;;;;;;39.00;30.83;;;17.60;1.00;;;;;;4958307;28;20455;-73
2021/06/09 05:25:34;;;;;;;40.10;33.00;;;17.20;1.00;;;;;;4962189;28;20535;-73
2021/06/09 05:28:01;;;;;;;38.73;32.73;;;16.90;1.00;;;;;;4967742;28;20509;-73
2021/06/09 05:30:29;;;;;;;49.90;38.90;;;16.90;1.00;;;;;;4961229;28;20551;-73
2021/06/09 05:32:55;;;;;;;43.93;36.30;;;16.80;1.00;;;;;;4957215;28;20455;-73
2021/06/09 05:35:22;;;;;;;40.60;35.80;;;16.80;1.00;;;;;;4962830;28;20479;-73
2021/06/09 05:37:49;;;;;;;34.73;31.03;;;16.70;1.00;;;;;;4960915;28;20447;-73
2021/06/09 05:40:20;;;;;;;40.50;30.17;;;16.90;1.00;;;;;;4963683;28;20472;-73
2021/06/09 05:42:47;;;;;;;37.07;31.40;;;16.90;1.00;;;;;;4957177;28;20446;-73
2021/06/09 05:45:13;;;;;;;35.10;29.87;;;17.00;1.00;;;;;;4954626;28;20837;-73
2021/06/09 05:47:44;;;;;;;39.23;30.97;;;16.80;1.00;;;;;;4966112;28;20460;-73
2021/06/09 05:50:22;;;;;;;37.53;31.23;;;16.80;1.00;;;;;;4958922;28;20498;-73
2021/06/09 05:52:51;;;;;;;35.83;29.77;;;16.80;1.00;;;;;;4957734;28;21017;-73
2021/06/09 05:55:22;;;;;;;38.77;31.30;;;16.90;1.00;;;;;;4955338;28;20455;-73
2021/06/09 05:57:49;;;;;;;37.57;30.23;;;17.00;1.00;;;;;;4957048;28;20491;-73
2021/06/09 06:00:18;;;;;;;41.67;31.20;;;17.30;1.00;;;;;;4956364;28;20491;-73
2021/06/09 06:02:48;;;;;;;37.60;31.40;;;17.20;1.00;;;;;;4955363;28;20720;-73
2021/06/09 06:05:15;;;;;;;37.70;32.07;;;17.30;1.00;;;;;;4960423;28;21687;-73
2021/06/09 06:07:42;;;;;;;40.10;32.30;;;17.40;1.00;;;;;;4957588;28;20505;-73
2021/06/09 06:10:08;;;;;;;39.77;33.50;;;17.60;1.00;;;;;;4956330;28;20455;-73
2021/06/09 06:12:36;;;;;;;38.10;31.60;;;17.60;1.00;;;;;;4958173;28;21614;-73
2021/06/09 06:15:02;;;;;;;39.80;33.33;;;17.70;1.00;;;;;;4958156;28;20454;-73
2021/06/09 06:17:29;;;;;;;40.37;33.60;;;17.80;1.00;;;;;;4962907;28;20484;-73
2021/06/09 06:19:55;;;;;;;39.90;29.37;;;17.90;1.00;;;;;;4957205;28;20503;-73
2021/06/09 06:22:21;;;;;;;40.73;32.93;;;18.10;1.00;;;;;;4953196;28;20445;-73
2021/06/09 06:24:50;;;;;;;41.13;30.33;;;18.20;1.00;;;;;;4955085;28;20183;-73
2021/06/09 06:27:19;;;;;;;41.03;31.63;;;18.30;1.00;;;;;;4954620;28;20833;-74
2021/06/09 06:29:45;;;;;;;39.57;31.97;;;18.40;1.00;;;;;;4959301;28;20474;-73
2021/06/09 06:32:14;;;;;;;39.93;32.33;;;18.50;1.00;;;;;;4963647;28;20444;-73
2021/06/09 06:34:46;;;;;;;36.03;29.80;;;18.70;1.00;;;;;;4961983;28;20833;-73
2021/06/09 06:37:13;;;;;;;36.40;30.33;;;18.90;1.00;;;;;;4962116;28;20997;-73
2021/06/09 06:39:40;;;;;;;42.13;30.27;;;19.00;1.00;;;;;;4964769;28;20476;-73
2021/06/09 06:42:06;;;;;;;36.73;29.53;;;19.10;1.00;;;;;;4962132;28;20484;-73
2021/06/09 06:44:33;;;;;;;38.70;29.57;;;19.20;1.00;;;;;;4963209;28;20552;-73
2021/06/09 06:46:59;;;;;;;34.20;29.27;;;19.30;1.00;;;;;;4972803;28;20559;-73
2021/06/09 06:49:28;;;;;;;42.13;29.40;;;19.40;1.00;;;;;;4974848;28;20483;-73
2021/06/09 06:51:54;;;;;;;37.57;28.10;;;19.40;1.00;;;;;;4963325;28;20474;-73
2021/06/09 06:54:20;;;;;;;33.83;29.50;;;19.50;1.00;;;;;;4968464;28;20982;-74
2021/06/09 06:56:50;;;;;;;39.00;30.90;;;19.60;1.00;;;;;;4967103;28;20471;-73
2021/06/09 06:59:17;;;;;;;39.53;31.23;;;19.70;1.00;;;;;;4967066;28;20877;-74
2021/06/09 07:01:43;;;;;;;37.33;31.43;;;19.80;1.00;;;;;;4949865;28;20433;-73
2021/06/09 07:04:14;;;;;;;38.73;31.77;;;19.80;1.00;;;;;;4954390;28;20460;-73
2021/06/09 07:06:43;;;;;;;41.30;33.27;;;19.80;1.00;;;;;;4951749;28;21747;-73
2021/06/09 07:09:10;;;;;;;43.77;33.07;;;20.00;1.00;;;;;;4949550;28;20543;-73
2021/06/09 07:11:42;;;;;;;35.90;31.47;;;20.00;1.00;;;;;;4954892;28;21006;-73
2021/06/09 07:14:09;;;;;;;32.43;27.80;;;20.20;1.00;;;;;;4952847;28;20508;-74
2021/06/09 07:16:36;;;;;;;40.67;32.10;;;20.30;1.00;;;;;;4946800;28;20491;-73
2021/06/09 07:19:03;;;;;;;36.90;30.03;;;20.30;1.00;;;;;;4958304;28;20497;-73
2021/06/09 07:21:29;;;;;;;35.73;29.80;;;20.30;1.00;;;;;;4956827;28;21561;-74
2021/06/09 07:23:55;;;;;;;33.73;28.73;;;20.30;1.00;;;;;;4980941;28;21025;-74
2021/06/09 07:26:22;;;;;;;34.57;28.73;;;20.40;1.00;;;;;;4947807;28;20538;-74
2021/06/09 07:28:51;;;;;;;32.77;29.20;;;20.40;1.00;;;;;;4949245;28;20301;-73
2021/06/09 07:31:24;;;;;;;32.33;27.20;;;20.40;1.00;;;;;;4948360;28;20553;-73
2021/06/09 07:33:50;;;;;;;39.23;28.80;;;20.60;1.00;;;;;;4948087;28;20458;-73
2021/06/09 07:36:19;;;;;;;29.63;26.43;;;20.50;1.00;;;;;;4953903;28;20452;-74
2021/06/09 07:38:51;;;;;;;32.33;27.20;;;20.80;1.00;;;;;;4954485;28;20610;-74
2021/06/09 07:41:18;;;;;;;33.00;28.73;;;20.80;1.00;;;;;;4954928;28;20449;-74
2021/06/09 07:43:47;;;;;;;35.50;29.97;;;20.80;1.00;;;;;;4953807;28;21186;-73
2021/06/09 07:46:16;;;;;;;36.83;31.90;;;20.90;1.00;;;;;;4953805;28;20449;-73
2021/06/09 07:48:46;;;;;;;32.07;28.57;;;20.90;1.00;;;;;;4946771;28;20448;-74
2021/06/09 07:51:14;;;;;;;32.40;28.70;;;21.00;1.00;;;;;;4952812;28;20445;-74
2021/06/09 07:53:41;;;;;;;35.73;29.43;;;21.00;1.00;;;;;;4956933;28;20501;-73
2021/06/09 07:56:12;;;;;;;31.80;27.53;;;21.10;1.00;;;;;;4979915;28;20544;-74
2021/06/09 07:58:40;;;;;;;31.67;28.03;;;21.20;1.00;;;;;;4949052;28;20486;-74
2021/06/09 08:01:06;;;;;;;36.43;30.13;;;21.10;1.00;;;;;;4949178;28;20473;-73
2021/06/09 08:03:33;;;;;;;36.70;32.70;;;21.20;1.00;;;;;;4961928;28;21184;-74
2021/06/09 08:06:01;;;;;;;35.73;31.50;;;21.20;1.00;;;;;;4956697;28;20448;-74
2021/06/09 08:08:28;;;;;;;36.90;32.33;;;21.20;1.00;;;;;;4955047;28;20975;-74
2021/06/09 08:10:54;;;;;;;35.90;30.57;;;21.30;1.00;;;;;;4980372;28;20521;-73
2021/06/09 08:13:20;;;;;;;32.90;28.70;;;21.40;1.00;;;;;;4953907;28;20451;-74
2021/06/09 08:15:47;;;;;;;35.40;27.50;;;21.40;1.00;;;;;;4950598;28;20742;-74
2021/06/09 08:18:13;;;;;;;34.60;29.60;;;21.60;1.00;;;;;;4951390;28;20502;-74
2021/06/09 08:20:51;;;;;;;28.97;25.97;;;21.60;1.00;;;;;;4951908;28;20620;-74
2021/06/09 08:23:16;;;;;;;30.37;27.07;;;21.60;1.00;;;;;;4954519;28;20466;-73
2021/06/09 08:25:42;;;;;;;28.73;24.83;;;21.60;1.00;;;;;;4949964;28;20454;-74
2021/06/09 08:28:07;;;;;;;31.07;27.87;;;21.60;1.00;;;;;;4951804;28;20712;-74
2021/06/09 08:30:33;;;;;;;29.33;25.83;;;21.70;1.00;;;;;;4957797;28;20273;-74
2021/06/09 08:32:59;;;;;;;31.43;26.40;;;21.90;1.00;;;;;;4984594;27;20205;-74
2021/06/09 08:35:26;;;;;;;30.47;27.17;;;21.90;1.00;;;;;;4966173;28;20683;-74
2021/06/09 08:37:52;;;;;;;35.03;27.90;;;22.00;1.00;;;;;;4952375;28;20239;-74
2021/06/09 08:40:18;;;;;;;36.70;27.60;;;21.90;1.00;;;;;;4954257;28;20496;-74
2021/06/09 08:42:45;;;;;;;29.97;26.80;;;21.90;1.00;;;;;;4950869;28;20297;-74
2021/06/09 08:45:12;;;;;;;30.60;26.37;;;22.00;1.00;;;;;;4957414;28;20201;-74
2021/06/09 08:47:38;;;;;;;28.87;25.87;;;22.10;1.00;;;;;;4955815;28;20501;-74
2021/06/09 08:50:10;;;;;;;28.17;25.17;;;22.00;1.00;;;;;;4957124;28;20472;-74
2021/06/09 08:52:44;;;;;;;28.67;25.80;;;22.20;1.00;;;;;;4959014;28;20462;-73
2021/06/09 08:55:11;;;;;;;27.70;24.80;;;22.50;1.00;;;;;;4958184;28;20455;-74
2021/06/09 08:57:38;;;;;;;26.73;24.07;;;22.70;1.00;;;;;;4957398;28;20482;-74
2021/06/09 09:00:05;;;;;;;27.00;24.27;;;22.80;1.00;;;;;;4963518;28;20491;-74
2021/06/09 09:02:31;;;;;;;29.63;25.73;;;22.50;1.00;;;;;;4957445;28;20500;-74
2021/06/09 09:04:57;;;;;;;28.23;24.90;;;22.40;1.00;;;;;;4957570;28;20544;-74
2021/06/09 09:07:27;;;;;;;25.50;22.83;;;22.20;1.00;;;;;;4950398;28;20214;-74
2021/06/09 09:09:56;;;;;;;27.13;24.43;;;22.00;1.00;;;;;;4953863;28;20510;-74
2021/06/09 09:12:22;;;;;;;27.57;24.80;;;21.70;1.00;;;;;;4957161;28;20460;-73
2021/06/09 09:14:48;;;;;;;28.17;25.30;;;21.60;1.00;;;;;;4956341;28;20452;-74
2021/06/09 09:17:14;;;;;;;27.07;24.37;;;21.90;1.00;;;;;;4961047;28;20518;-73
2021/06/09 09:19:42;;;;;;;30.90;27.10;;;22.20;1.00;;;;;;4957072;28;21114;-73
2021/06/09 09:22:21;;;;;;;30.67;27.50;;;22.20;1.00;;;;;;4971709;28;20474;-73
2021/06/09 09:24:49;;;;;;;30.00;27.10;;;22.50;1.00;;;;;;4958775;28;20487;-73
2021/06/09 09:27:18;;;;;;;30.73;27.47;;;22.80;1.00;;;;;;4953943;28;21137;-73
2021/06/09 09:30:17;;;;;;;28.47;24.73;;;23.00;1.00;;;;;;4953742;28;20467;-74
2021/06/09 09:33:09;;;;;;;28.83;23.90;;;23.00;1.00;;;;;;4961578;28;20594;-74
2021/06/09 09:35:37;;;;;;;27.20;24.40;;;23.00;1.00;;;;;;4963631;28;20457;-74
2021/06/09 09:38:18;;;;;;;28.23;25.37;;;23.10;1.00;;;;;;4957262;28;20449;-74
2021/06/09 09:41:06;;;;;;;29.30;26.30;;;23.20;1.00;;;;;;4957314;28;21235;-74
2021/06/09 09:44:08;;;;;;;30.20;27.30;;;23.50;1.00;;;;;;4952847;28;21238;-73
2021/06/09 09:46:38;;;;;;;30.03;26.87;;;23.50;1.00;;;;;;5031589;28;21036;-74
2021/06/09 09:49:07;;;;;;;30.60;27.47;;;23.50;1.00;;;;;;4976560;28;20922;-74
2021/06/09 09:51:44;;;;;;;28.87;25.90;;;23.60;1.00;;;;;;4951630;28;21492;-74
2021/06/09 09:54:09;;;;;;;29.13;26.27;;;23.40;1.00;;;;;;4954051;28;20563;-74
2021/06/09 09:56:40;;;;;;;28.13;25.43;;;23.20;1.00;;;;;;4956554;28;20526;-74
2021/06/09 09:59:09;;;;;;;28.27;25.37;;;23.00;1.00;;;;;;4951732;28;22655;-74
2021/06/09 10:01:39;;;;;;;29.27;26.37;;;22.90;1.00;;;;;;4954802;28;20465;-74
2021/06/09 10:04:06;;;;;;;32.67;29.30;;;22.80;1.00;;;;;;4957318;28;20456;-74
2021/06/09 10:06:40;;;;;;;30.30;26.93;;;22.70;1.00;;;;;;4957228;28;20445;-74
2021/06/09 10:09:08;;;;;;;30.80;27.70;;;22.70;1.00;;;;;;4953303;28;20509;-74
2021/06/09 10:11:38;;;;;;;28.97;26.23;;;23.00;1.00;;;;;;4954995;28;20798;-73
2021/06/09 10:14:18;;;;;;;29.17;26.07;;;23.40;1.00;;;;;;4951490;28;20505;-73
2021/06/09 10:16:45;;;;;;;28.20;25.17;;;23.70;1.00;;;;;;4958614;28;20471;-74
2021/06/09 10:19:13;;;;;;;27.03;23.60;;;24.10;1.00;;;;;;4955976;28;21031;-74
2021/06/09 10:21:49;;;;;;;26.37;23.90;;;24.10;1.00;;;;;;4955801;28;20511;-73
2021/06/09 10:24:15;;;;;;;26.23;23.30;;;23.70;1.00;;;;;;4951001;28;25175;-74
2021/06/09 10:26:50;;;;;;;25.67;23.07;;;23.40;1.00;;;;;;4954743;28;20448;-73
2021/06/09 10:29:18;;;;;;;22.83;20.50;;;23.30;1.00;;;;;;4954734;28;20456;-73
2021/06/09 10:31:57;;;;;;;22.10;20.00;;;23.50;1.00;;;;;;4965481;28;20468;-73
2021/06/09 10:34:24;;;;;;;23.73;21.33;;;23.70;1.00;;;;;;4970241;28;20448;-73
2021/06/09 10:36:52;;;;;;;26.57;22.27;;;24.00;1.00;;;;;;4960781;28;20820;-74
2021/06/09 10:39:19;;;;;;;23.07;20.70;;;24.10;1.00;;;;;;4958984;28;20800;-74
2021/06/09 10:41:48;;;;;;;23.43;20.93;;;24.40;1.00;;;;;;4956790;28;20445;-74
2021/06/09 10:44:18;;;;;;;24.77;22.47;;;24.50;1.00;;;;;;4955442;28;20677;-74
2021/06/09 10:46:47;;;;;;;27.60;23.83;;;24.10;1.00;;;;;;4966981;28;20464;-74
2021/06/09 10:49:17;;;;;;;25.23;22.73;;;23.80;1.00;;;;;;4969949;28;23105;-74
2021/06/09 10:51:45;;;;;;;25.63;23.17;;;23.70;1.00;;;;;;4960653;28;20905;-74
2021/06/09 10:54:13;;;;;;;27.70;24.90;;;23.40;1.00;;;;;;4958674;28;20467;-73
2021/06/09 10:56:40;;;;;;;23.50;21.10;;;23.20;1.00;;;;;;4957690;28;20495;-74
2021/06/09 10:59:06;;;;;;;23.23;19.00;;;23.20;1.00;;;;;;4958074;28;20482;-73
2021/06/09 11:01:32;;;;;;;22.27;20.17;;;23.50;1.00;;;;;;4956943;28;21025;-73
2021/06/09 11:04:00;;;;;;;20.50;18.50;;;23.70;1.00;;;;;;4951004;28;20839;-73
2021/06/09 11:06:49;;;;;;;21.77;19.67;;;23.90;1.00;;;;;;4948144;28;20444;-73
2021/06/09 11:09:25;;;;;;;20.70;18.60;;;24.20;1.00;;;;;;4950008;28;20515;-73
2021/06/09 11:12:12;;;;;;;17.03;15.40;;;24.30;1.00;;;;;;4953410;28;20506;-74
2021/06/09 11:15:00;;;;;;;20.00;18.13;;;24.50;1.00;;;;;;4958644;28;20514;-74
2021/06/09 11:17:50;;;;;;;21.10;19.03;;;24.70;1.00;;;;;;4958142;28;20552;-74
2021/06/09 11:20:37;;;;;;;16.10;14.60;;;24.90;1.00;;;;;;4960390;28;20614;-74
2021/06/09 11:23:10;;;;;;;18.70;16.70;;;25.00;1.00;;;;;;4956335;28;20445;-74
2021/06/09 11:25:40;;;;;;;18.60;16.73;;;24.60;1.00;;;;;;4956485;28;20452;-74
2021/06/09 11:28:16;;;;;;;18.60;16.70;;;24.50;1.00;;;;;;4958636;28;21005;-73
2021/06/09 11:30:50;;;;;;;17.90;16.20;;;24.30;1.00;;;;;;4956980;28;21651;-74
2021/06/09 11:33:45;;;;;;;16.97;15.27;;;24.40;1.00;;;;;;4955137;28;20512;-74
2021/06/09 11:36:38;;;;;;;19.83;15.50;;;24.60;1.00;;;;;;4955394;28;20449;-73
2021/06/09 11:39:19;;;;;;;18.60;16.90;;;24.80;1.00;;;;;;4952830;28;20484;-74
2021/06/09 11:41:48;;;;;;;16.37;14.87;;;24.90;1.00;;;;;;4949681;28;20514;-74
2021/06/09 11:44:37;;;;;;;16.03;14.60;;;24.80;1.00;;;;;;4953571;28;20456;-73
2021/06/09 11:47:19;;;;;;;20.33;18.43;;;24.70;1.00;;;;;;4960775;28;20449;-73
2021/06/09 11:49:46;;;;;;;17.83;16.17;;;24.50;1.00;;;;;;4953123;28;20965;-74
2021/06/09 11:52:12;;;;;;;17.40;15.70;;;24.30;1.00;;;;;;4955566;28;20467;-74
2021/06/09 11:54:38;;;;;;;17.23;15.63;;;24.20;1.00;;;;;;4951820;28;22364;-74
2021/06/09 11:57:20;;;;;;;18.13;16.30;;;24.30;1.00;;;;;;4956379;28;20198;-74
2021/06/09 11:59:47;;;;;;;17.90;16.20;;;24.60;1.00;;;;;;4954634;28;21935;-74
2021/06/09 12:02:25;;;;;;;16.90;15.30;;;24.70;1.00;;;;;;4960371;28;20464;-74
2021/06/09 12:04:53;;;;;;;16.40;14.90;;;25.00;1.00;;;;;;4946686;28;20472;-74
2021/06/09 12:07:27;;;;;;;18.40;16.60;;;25.10;1.00;;;;;;4953629;28;20460;-74
2021/06/09 12:09:59;;;;;;;17.37;15.67;;;25.30;1.00;;;;;;4962278;28;21634;-74
2021/06/09 12:12:30;;;;;;;14.13;12.83;;;25.60;1.00;;;;;;4960264;28;20793;-74
2021/06/09 12:15:02;;;;;;;16.43;15.00;;;25.40;1.00;;;;;;4955314;28;20576;-74
2021/06/09 12:17:33;;;;;;;16.93;15.33;;;25.30;1.00;;;;;;4960135;28;20477;-74
2021/06/09 12:20:07;;;;;;;18.33;16.43;;;25.30;1.00;;;;;;4977739;28;20484;-73
2021/06/09 12:22:34;;;;;;;19.17;17.30;;;25.10;1.00;;;;;;4955907;28;20474;-73
2021/06/09 12:25:05;;;;;;;15.60;14.10;;;24.70;1.00;;;;;;4955880;28;20449;-73
2021/06/09 12:27:32;;;;;;;18.73;16.90;;;24.70;1.00;;;;;;4956109;28;20434;-74
2021/06/09 12:29:58;;;;;;;20.90;18.90;;;24.90;1.00;;;;;;4956286;28;20495;-73
2021/06/09 12:32:29;;;;;;;22.23;20.03;;;25.00;1.00;;;;;;4954340;28;21258;-73
2021/06/09 12:34:59;;;;;;;16.63;15.00;;;25.00;1.00;;;;;;4947052;28;20890;-73
2021/06/09 12:37:26;;;;;;;17.40;15.90;;;25.00;1.00;;;;;;4949823;28;20479;-74
2021/06/09 12:39:54;;;;;;;18.40;16.70;;;24.90;1.00;;;;;;4945637;28;20556;-73
2021/06/09 12:42:20;;;;;;;20.40;18.30;;;25.00;1.00;;;;;;4959007;28;20741;-74
2021/06/09 12:44:50;;;;;;;17.93;16.10;;;25.00;1.00;;;;;;4951957;28;21027;-74
2021/06/09 12:47:43;;;;;;;18.57;16.90;;;25.20;1.00;;;;;;4960655;28;20460;-74
2021/06/09 12:50:27;;;;;;;18.80;17.00;;;25.30;1.00;;;;;;4952180;28;20487;-74
2021/06/09 12:52:56;;;;;;;19.03;17.17;;;25.50;1.00;;;;;;4954405;28;20555;-74
2021/06/09 12:55:26;;;;;;;17.70;16.03;;;25.50;1.00;;;;;;4953059;28;22602;-74